createdAt,value
2018-11-27T00:00:55.166Z,4.27
2018-11-27T00:03:24.403Z,3.20
2018-11-27T00:05:53.374Z,2.50
2018-11-27T00:08:22.451Z,2.97
2018-11-27T00:10:51.812Z,6.00
2018-11-27T00:13:20.973Z,4.67
2018-11-27T00:15:49.946Z,2.87
2018-11-27T00:18:18.947Z,4.07
2018-11-27T00:20:48.063Z,2.57
2018-11-27T00:23:17.377Z,2.73
2018-11-27T00:25:47.012Z,3.23
2018-11-27T00:28:16.380Z,3.03
2018-11-27T00:30:45.584Z,2.97
2018-11-27T00:33:14.865Z,3.40
2018-11-27T00:35:44.084Z,3.40
2018-11-27T00:38:13.494Z,3.20
2018-11-27T00:40:42.499Z,4.13
2018-11-27T00:43:11.899Z,2.70
2018-11-27T00:45:40.953Z,3.37
2018-11-27T00:48:13.615Z,2.20
2018-11-27T00:50:42.727Z,2.73
2018-11-27T00:53:11.903Z,3.97
2018-11-27T00:55:41.506Z,5.03
2018-11-27T00:58:10.855Z,3.40
2018-11-27T01:00:40.095Z,4.67
2018-11-27T01:03:09.437Z,6.03
2018-11-27T01:05:38.675Z,4.27
2018-11-27T01:08:08.257Z,3.73
2018-11-27T01:10:37.552Z,2.77
2018-11-27T01:13:07.442Z,2.13
2018-11-27T01:15:36.680Z,3.23
2018-11-27T01:18:05.925Z,2.73
2018-11-27T01:20:35.315Z,3.30
2018-11-27T01:23:04.234Z,4.70
2018-11-27T01:25:33.386Z,3.23
2018-11-27T01:28:02.804Z,3.43
2018-11-27T01:30:31.996Z,4.33
2018-11-27T01:33:01.115Z,3.03
2018-11-27T01:35:30.065Z,2.50
2018-11-27T01:37:59.132Z,2.60
2018-11-27T01:40:28.231Z,3.13
2018-11-27T01:42:58.145Z,5.50
2018-11-27T01:45:27.302Z,3.03
2018-11-27T01:47:56.741Z,2.97
2018-11-27T01:50:25.963Z,2.20
2018-11-27T01:52:55.229Z,2.53
2018-11-27T01:55:24.403Z,2.67
2018-11-27T01:57:53.793Z,5.27
2018-11-27T02:00:25.516Z,4.50
2018-11-27T02:02:55.097Z,2.70
2018-11-27T02:05:24.782Z,2.87
2018-11-27T02:07:53.919Z,3.97
2018-11-27T02:10:22.899Z,2.97
2018-11-27T02:12:52.965Z,2.37
2018-11-27T02:15:22.844Z,2.43
2018-11-27T02:17:51.834Z,4.33
2018-11-27T02:20:20.686Z,5.70
2018-11-27T02:22:49.573Z,5.10
2018-11-27T02:25:26.242Z,3.27
2018-11-27T02:27:55.416Z,2.30
2018-11-27T02:30:25.273Z,3.10
2018-11-27T02:32:54.172Z,4.40
2018-11-27T02:35:23.700Z,4.77
2018-11-27T02:37:53.648Z,2.50
2018-11-27T02:40:22.626Z,3.00
2018-11-27T02:42:53.818Z,4.43
2018-11-27T02:45:23.692Z,4.13
2018-11-27T02:47:53.456Z,3.97
2018-11-27T02:50:23.805Z,3.23
2018-11-27T02:52:52.714Z,3.50
2018-11-27T02:55:22.519Z,4.20
2018-11-27T02:57:52.195Z,3.10
2018-11-27T03:00:22.245Z,3.37
2018-11-27T03:02:51.422Z,4.00
2018-11-27T03:05:25.825Z,4.00
2018-11-27T03:07:55.075Z,3.60
2018-11-27T03:10:24.072Z,4.47
2018-11-27T03:12:53.050Z,2.43
2018-11-27T03:15:22.178Z,4.20
2018-11-27T03:17:53.429Z,3.30
2018-11-27T03:20:22.591Z,2.40
2018-11-27T03:22:51.491Z,3.20
2018-11-27T03:25:21.102Z,3.37
2018-11-27T03:27:51.043Z,3.83
2018-11-27T03:30:25.473Z,3.03
2018-11-27T03:32:54.628Z,2.73
2018-11-27T03:35:24.107Z,2.80
2018-11-27T03:37:53.102Z,2.20
2018-11-27T03:40:23.971Z,3.87
2018-11-27T03:42:53.095Z,3.10
2018-11-27T03:45:22.652Z,2.87
2018-11-27T03:47:51.512Z,3.97
2018-11-27T03:50:24.383Z,3.23
2018-11-27T03:52:53.220Z,7.37
2018-11-27T03:55:22.241Z,4.87
2018-11-27T03:57:50.871Z,4.53
2018-11-27T04:00:23.240Z,2.63
2018-11-27T04:03:03.189Z,2.87
2018-11-27T04:05:32.145Z,2.40
2018-11-27T04:08:00.833Z,4.13
2018-11-27T04:10:30.029Z,4.13
2018-11-27T04:12:58.899Z,4.07
2018-11-27T04:15:27.993Z,5.10
2018-11-27T04:17:56.645Z,2.80
2018-11-27T04:20:25.720Z,4.17
2018-11-27T04:22:54.532Z,4.23
2018-11-27T04:25:25.541Z,3.57
2018-11-27T04:27:54.864Z,3.67
2018-11-27T04:30:23.912Z,3.73
2018-11-27T04:32:54.248Z,5.07
2018-11-27T04:35:23.474Z,4.20
2018-11-27T04:37:52.562Z,3.53
2018-11-27T04:40:22.346Z,5.33
2018-11-27T04:42:51.644Z,2.73
2018-11-27T04:45:21.802Z,3.63
2018-11-27T04:47:50.894Z,2.90
2018-11-27T04:50:20.152Z,4.50
2018-11-27T04:52:49.195Z,3.50
2018-11-27T04:55:19.857Z,3.30
2018-11-27T04:57:53.220Z,3.90
2018-11-27T05:00:23.012Z,2.70
2018-11-27T05:02:52.228Z,8.60
2018-11-27T05:05:21.440Z,7.13
2018-11-27T05:07:51.033Z,4.80
2018-11-27T05:10:22.659Z,5.33
2018-11-27T05:12:51.827Z,3.40
2018-11-27T05:15:22.995Z,5.63
2018-11-27T05:17:52.712Z,6.17
2018-11-27T05:20:21.714Z,4.27
2018-11-27T05:22:50.808Z,8.80
2018-11-27T05:25:22.193Z,7.63
2018-11-27T05:27:55.005Z,3.20
2018-11-27T05:30:25.072Z,3.90
2018-11-27T05:32:54.176Z,5.40
2018-11-27T05:35:31.731Z,6.17
2018-11-27T05:38:01.953Z,5.67
2018-11-27T05:40:30.997Z,5.27
2018-11-27T05:43:02.848Z,6.70
2018-11-27T05:45:32.114Z,9.03
2018-11-27T05:48:01.037Z,6.07
2018-11-27T05:50:31.232Z,9.10
2018-11-27T05:52:59.926Z,8.23
2018-11-27T05:55:28.736Z,11.80
2018-11-27T05:57:58.247Z,10.53
2018-11-27T06:00:28.114Z,10.47
2018-11-27T06:02:59.104Z,8.07
2018-11-27T06:05:28.060Z,14.47
2018-11-27T06:07:57.532Z,12.43
2018-11-27T06:10:26.417Z,9.70
2018-11-27T06:12:55.252Z,13.43
2018-11-27T06:15:24.923Z,11.07
2018-11-27T06:17:57.842Z,9.07
2018-11-27T06:20:26.822Z,10.73
2018-11-27T06:22:55.925Z,15.37
2018-11-27T06:25:25.752Z,16.80
2018-11-27T06:27:56.841Z,19.83
2018-11-27T06:30:27.340Z,13.60
2018-11-27T06:32:56.538Z,15.00
2018-11-27T06:35:59.371Z,7.40
2018-11-27T06:38:29.485Z,9.03
2018-11-27T06:40:58.478Z,13.70
2018-11-27T06:43:34.880Z,8.33
2018-11-27T06:46:03.795Z,8.33
2018-11-27T06:48:32.799Z,12.57
2018-11-27T06:51:02.147Z,7.77
2018-11-27T06:53:31.157Z,10.03
2018-11-27T06:56:00.189Z,15.63
2018-11-27T06:58:29.267Z,12.63
2018-11-27T07:00:58.342Z,11.10
2018-11-27T07:03:27.349Z,10.10
2018-11-27T07:05:57.146Z,9.50
2018-11-27T07:08:27.382Z,12.83
2018-11-27T07:10:55.263Z,17.50
2018-11-27T07:13:25.475Z,15.73
2018-11-27T07:15:54.455Z,10.60
2018-11-27T07:18:23.502Z,12.77
2018-11-27T07:20:52.444Z,8.23
2018-11-27T07:23:21.379Z,14.77
2018-11-27T07:25:50.327Z,8.27
2018-11-27T07:28:19.230Z,8.87
2018-11-27T07:30:48.129Z,15.13
2018-11-27T07:33:16.843Z,8.63
2018-11-27T07:35:45.814Z,12.40
2018-11-27T07:38:14.900Z,9.10
2018-11-27T07:40:43.741Z,10.90
2018-11-27T07:43:13.644Z,16.30
2018-11-27T07:45:42.683Z,14.00
2018-11-27T07:48:11.890Z,13.97
2018-11-27T07:50:40.759Z,13.70
2018-11-27T07:53:09.790Z,13.90
2018-11-27T07:55:38.741Z,14.67
2018-11-27T07:58:07.858Z,18.17
2018-11-27T08:00:36.983Z,14.30
2018-11-27T08:03:06.888Z,13.60
2018-11-27T08:05:38.221Z,14.93
2018-11-27T08:08:08.693Z,14.67
2018-11-27T08:10:37.558Z,12.57
2018-11-27T08:13:07.584Z,17.57
2018-11-27T08:15:36.664Z,14.70
2018-11-27T08:18:05.745Z,10.97
2018-11-27T08:20:35.362Z,13.13
2018-11-27T08:23:04.757Z,11.57
2018-11-27T08:25:33.771Z,12.23
2018-11-27T08:28:03.135Z,14.50
2018-11-27T08:30:32.132Z,22.23
2018-11-27T08:33:01.373Z,11.87
2018-11-27T08:35:30.822Z,23.27
2018-11-27T08:38:00.557Z,15.93
2018-11-27T08:40:31.808Z,11.53
2018-11-27T08:43:00.804Z,15.53
2018-11-27T08:45:29.745Z,10.47
2018-11-27T08:47:58.610Z,20.27
2018-11-27T08:50:28.430Z,20.27
2018-11-27T08:52:58.417Z,15.60
2018-11-27T08:55:34.144Z,15.80
2018-11-27T08:58:03.483Z,12.10
2018-11-27T09:00:32.396Z,16.07
2018-11-27T09:03:01.629Z,15.37
2018-11-27T09:05:30.983Z,22.20
2018-11-27T09:08:00.172Z,16.63
2018-11-27T09:10:29.508Z,18.97
2018-11-27T09:12:59.081Z,16.63
2018-11-27T09:15:28.166Z,13.97
2018-11-27T09:17:59.397Z,15.20
2018-11-27T09:20:28.506Z,20.00
2018-11-27T09:22:58.571Z,16.90
2018-11-27T09:25:27.575Z,17.43
2018-11-27T09:27:56.640Z,18.73
2018-11-27T09:30:26.764Z,18.13
2018-11-27T09:32:56.710Z,18.87
2018-11-27T09:35:26.101Z,21.07
2018-11-27T09:37:54.793Z,21.40
2018-11-27T09:40:23.480Z,17.93
2018-11-27T09:42:52.463Z,14.97
2018-11-27T09:45:23.376Z,16.77
2018-11-27T09:47:53.273Z,18.50
2018-11-27T09:50:22.594Z,20.27
2018-11-27T09:52:51.729Z,19.63
2018-11-27T09:55:26.560Z,14.47
2018-11-27T09:57:59.205Z,20.53
2018-11-27T10:00:26.567Z,16.60
2018-11-27T10:02:57.812Z,17.13
2018-11-27T10:05:26.494Z,18.40
2018-11-27T10:07:55.523Z,23.17
2018-11-27T10:10:25.392Z,16.47
2018-11-27T10:12:54.387Z,15.93
2018-11-27T10:15:24.488Z,15.97
2018-11-27T10:17:54.634Z,13.80
2018-11-27T10:20:24.793Z,14.20
2018-11-27T10:22:53.943Z,23.17
2018-11-27T10:25:22.836Z,15.37
2018-11-27T10:27:51.878Z,16.80
2018-11-27T10:30:23.020Z,19.23
2018-11-27T10:32:53.300Z,21.23
2018-11-27T10:35:27.296Z,16.30
2018-11-27T10:37:56.549Z,19.47
2018-11-27T10:40:26.036Z,17.27
2018-11-27T10:42:55.343Z,18.50
2018-11-27T10:45:24.665Z,20.60
2018-11-27T10:47:55.675Z,14.47
2018-11-27T10:50:25.041Z,17.53
2018-11-27T10:52:56.754Z,17.10
2018-11-27T10:55:26.825Z,25.43
2018-11-27T10:57:56.072Z,16.60
2018-11-27T11:00:31.229Z,15.73
2018-11-27T11:03:03.192Z,18.40
2018-11-27T11:05:34.990Z,15.97
2018-11-27T11:08:04.248Z,17.00
2018-11-27T11:10:33.359Z,14.77
2018-11-27T11:13:02.466Z,24.70
2018-11-27T11:15:31.772Z,21.37
2018-11-27T11:18:00.982Z,19.83
2018-11-27T11:20:30.325Z,21.77
2018-11-27T11:22:59.418Z,20.30
2018-11-27T11:25:28.547Z,14.47
2018-11-27T11:27:58.928Z,19.77
2018-11-27T11:30:28.036Z,17.93
2018-11-27T11:32:57.229Z,17.10
2018-11-27T11:35:26.357Z,14.97
2018-11-27T11:37:55.531Z,18.63
2018-11-27T11:40:25.813Z,15.13
2018-11-27T11:42:57.100Z,18.73
2018-11-27T11:45:26.484Z,14.33
2018-11-27T11:47:55.680Z,15.10
2018-11-27T11:50:26.968Z,13.40
2018-11-27T11:53:00.130Z,16.57
2018-11-27T11:55:29.271Z,16.87
2018-11-27T11:57:58.700Z,18.87
2018-11-27T12:00:31.802Z,18.67
2018-11-27T12:03:01.368Z,15.13
2018-11-27T12:05:31.055Z,14.33
2018-11-27T12:08:00.207Z,15.03
2018-11-27T12:10:29.362Z,18.87
2018-11-27T12:12:58.401Z,8.80
2018-11-27T12:15:27.690Z,16.60
2018-11-27T12:17:56.486Z,11.20
2018-11-27T12:20:25.671Z,15.93
2018-11-27T12:22:54.943Z,15.20
2018-11-27T12:25:24.530Z,13.97
2018-11-27T12:27:53.541Z,11.70
2018-11-27T12:30:25.006Z,11.40
2018-11-27T12:32:54.352Z,11.03
2018-11-27T12:35:23.770Z,11.87
2018-11-27T12:37:53.244Z,12.10
2018-11-27T12:40:26.942Z,8.83
2018-11-27T12:42:56.682Z,12.93
2018-11-27T12:45:26.913Z,11.63
2018-11-27T12:47:56.796Z,6.77
2018-11-27T12:50:33.906Z,10.37
2018-11-27T12:53:02.913Z,5.63
2018-11-27T12:55:32.814Z,11.33
2018-11-27T12:58:02.669Z,6.90
2018-11-27T13:00:31.779Z,7.07
2018-11-27T13:03:00.939Z,7.20
2018-11-27T13:05:34.447Z,3.73
2018-11-27T13:08:05.793Z,7.47
2018-11-27T13:10:35.111Z,4.73
2018-11-27T13:13:04.669Z,5.47
2018-11-27T13:15:33.634Z,7.50
2018-11-27T13:18:02.510Z,7.80
2018-11-27T13:20:31.495Z,9.20
2018-11-27T13:23:00.643Z,4.93
2018-11-27T13:25:29.664Z,9.93
2018-11-27T13:27:58.624Z,5.83
2018-11-27T13:31:02.241Z,6.43
2018-11-27T13:33:49.860Z,8.17
2018-11-27T13:36:19.205Z,5.40
2018-11-27T13:38:48.431Z,6.63
2018-11-27T13:41:17.637Z,10.93
2018-11-27T13:43:46.828Z,7.57
2018-11-27T13:46:16.239Z,5.33
2018-11-27T13:48:45.435Z,6.50
2018-11-27T13:51:14.359Z,6.67
2018-11-27T13:53:43.849Z,6.83
2018-11-27T13:56:13.239Z,5.87
2018-11-27T13:58:42.652Z,6.57
2018-11-27T14:01:12.065Z,5.23
2018-11-27T14:03:40.955Z,4.47
2018-11-27T14:06:10.163Z,6.73
2018-11-27T14:08:39.110Z,7.43
2018-11-27T14:11:08.228Z,5.37
2018-11-27T14:13:37.876Z,4.00
2018-11-27T14:16:07.058Z,5.40
2018-11-27T14:18:36.180Z,6.30
2018-11-27T14:21:05.451Z,3.70
2018-11-27T14:23:34.987Z,5.00
2018-11-27T14:26:04.300Z,7.33
2018-11-27T14:28:33.608Z,5.93
2018-11-27T14:31:02.845Z,4.80
2018-11-27T14:33:32.184Z,8.07
2018-11-27T14:36:01.305Z,3.57
2018-11-27T14:38:30.456Z,4.20
2018-11-27T14:40:59.490Z,3.73
2018-11-27T14:43:28.621Z,5.33
2018-11-27T14:45:57.871Z,7.87
2018-11-27T14:48:26.928Z,8.20
2018-11-27T14:50:56.524Z,3.73
2018-11-27T14:53:25.828Z,4.23
2018-11-27T14:55:55.313Z,9.37
2018-11-27T14:58:24.640Z,5.07
2018-11-27T15:00:53.851Z,7.57
2018-11-27T15:03:23.396Z,10.67
2018-11-27T15:05:52.454Z,5.10
2018-11-27T15:08:25.426Z,5.07
2018-11-27T15:10:54.280Z,8.47
2018-11-27T15:13:23.150Z,4.80
2018-11-27T15:15:52.190Z,6.43
2018-11-27T15:18:22.673Z,5.60
2018-11-27T15:20:52.835Z,4.77
2018-11-27T15:23:21.920Z,4.93
2018-11-27T15:25:51.085Z,5.97
2018-11-27T15:28:20.390Z,9.17
2018-11-27T15:30:49.471Z,6.43
2018-11-27T15:33:18.902Z,4.83
2018-11-27T15:35:48.076Z,4.90
2018-11-27T15:38:17.071Z,4.63
2018-11-27T15:40:46.405Z,7.77
2018-11-27T15:43:15.582Z,6.67
2018-11-27T15:45:44.749Z,5.80
2018-11-27T15:48:14.105Z,4.67
2018-11-27T15:50:43.286Z,6.50
2018-11-27T15:53:12.359Z,7.90
2018-11-27T15:55:41.740Z,8.23
2018-11-27T15:58:12.017Z,6.53
2018-11-27T16:00:41.921Z,7.03
2018-11-27T16:03:11.300Z,7.43
2018-11-27T16:05:43.522Z,5.37
2018-11-27T16:08:12.721Z,8.00
2018-11-27T16:10:41.885Z,6.33
2018-11-27T16:13:11.101Z,5.70
2018-11-27T16:15:40.337Z,8.87
2018-11-27T16:18:09.410Z,5.87
2018-11-27T16:20:38.456Z,7.80
2018-11-27T16:23:07.877Z,6.67
2018-11-27T16:25:37.004Z,6.37
2018-11-27T16:28:06.743Z,8.97
2018-11-27T16:30:37.072Z,10.00
2018-11-27T16:33:06.720Z,5.87
2018-11-27T16:35:36.028Z,7.23
2018-11-27T16:38:05.763Z,8.33
2018-11-27T16:40:36.419Z,6.90
2018-11-27T16:43:05.838Z,5.97
2018-11-27T16:45:35.103Z,10.93
2018-11-27T16:48:04.378Z,12.40
2018-11-27T16:50:33.586Z,13.37
2018-11-27T16:53:02.610Z,24.30
2018-11-27T16:55:31.730Z,10.53
2018-11-27T16:58:00.530Z,19.90
2018-11-27T17:00:33.033Z,11.97
2018-11-27T17:03:02.927Z,14.10
2018-11-27T17:05:33.435Z,17.53
2018-11-27T17:08:02.290Z,11.53
2018-11-27T17:11:02.529Z,9.43
2018-11-27T17:13:32.207Z,10.10
2018-11-27T17:16:01.562Z,6.57
2018-11-27T17:18:31.023Z,11.87
2018-11-27T17:20:59.860Z,7.97
2018-11-27T17:23:30.885Z,9.73
2018-11-27T17:26:03.995Z,7.30
2018-11-27T17:28:31.575Z,6.97
2018-11-27T17:31:08.660Z,7.37
2018-11-27T17:33:45.461Z,11.33
2018-11-27T17:36:14.829Z,10.03
2018-11-27T17:38:43.965Z,9.80
2018-11-27T17:41:13.355Z,10.57
2018-11-27T17:43:42.492Z,22.67
2018-11-27T17:46:11.789Z,11.57
2018-11-27T17:48:41.027Z,10.53
2018-11-27T17:51:10.319Z,12.37
2018-11-27T17:53:39.485Z,12.00
2018-11-27T17:56:10.878Z,16.83
2018-11-27T17:58:39.994Z,18.10
2018-11-27T18:01:09.930Z,14.63
2018-11-27T18:03:39.932Z,14.27
2018-11-27T18:06:09.309Z,9.57
2018-11-27T18:08:38.557Z,8.17
2018-11-27T18:11:07.981Z,6.43
2018-11-27T18:13:37.230Z,12.43
2018-11-27T18:16:06.498Z,6.27
2018-11-27T18:18:36.634Z,10.47
2018-11-27T18:21:05.833Z,9.97
2018-11-27T18:23:35.363Z,17.03
2018-11-27T18:26:04.562Z,10.60
2018-11-27T18:28:35.233Z,11.50
2018-11-27T18:31:04.930Z,12.50
2018-11-27T18:33:34.217Z,10.93
2018-11-27T18:36:03.516Z,10.40
2018-11-27T18:38:32.869Z,11.27
2018-11-27T18:41:03.446Z,10.47
2018-11-27T18:43:32.708Z,8.07
2018-11-27T18:46:01.809Z,10.93
2018-11-27T18:48:30.998Z,15.60
2018-11-27T18:51:00.304Z,11.73
2018-11-27T18:53:29.589Z,10.93
2018-11-27T18:55:59.844Z,7.93
2018-11-27T18:58:29.694Z,9.07
2018-11-27T19:00:59.183Z,6.60
2018-11-27T19:03:28.649Z,11.60
2018-11-27T19:05:58.082Z,9.43
2018-11-27T19:08:27.468Z,12.77
2018-11-27T19:10:56.775Z,19.07
2018-11-27T19:13:31.311Z,5.63
2018-11-27T19:16:02.477Z,9.63
2018-11-27T19:18:32.102Z,14.10
2018-11-27T19:21:01.385Z,12.13
2018-11-27T19:23:30.678Z,16.87
2018-11-27T19:25:59.826Z,7.33
2018-11-27T19:28:30.103Z,10.47
2018-11-27T19:30:59.256Z,18.77
2018-11-27T19:33:28.497Z,10.03
2018-11-27T19:35:57.899Z,13.43
2018-11-27T19:38:26.923Z,8.53
2018-11-27T19:40:56.158Z,8.60
2018-11-27T19:43:25.327Z,12.83
2018-11-27T19:45:54.653Z,2.97
2018-11-27T19:48:29.270Z,12.73
2018-11-27T19:50:58.441Z,8.90
2018-11-27T19:53:27.527Z,7.27
2018-11-27T19:55:56.683Z,8.30
2018-11-27T19:58:25.977Z,10.93
2018-11-27T20:00:55.396Z,9.77
2018-11-27T20:03:24.865Z,12.77
2018-11-27T20:05:54.311Z,12.60
2018-11-27T20:08:23.516Z,13.93
2018-11-27T20:10:52.773Z,8.17
2018-11-27T20:13:22.064Z,9.53
2018-11-27T20:15:55.061Z,8.93
2018-11-27T20:18:25.749Z,11.20
2018-11-27T20:20:55.231Z,11.53
2018-11-27T20:23:24.443Z,9.53
2018-11-27T20:25:53.705Z,12.37
2018-11-27T20:28:24.114Z,11.13
2018-11-27T20:30:53.358Z,15.10
2018-11-27T20:33:24.160Z,17.10
2018-11-27T20:35:53.684Z,14.00
2018-11-27T20:38:23.085Z,15.00
2018-11-27T20:40:52.323Z,12.97
2018-11-27T20:43:22.642Z,13.20
2018-11-27T20:45:52.021Z,13.47
2018-11-27T20:48:22.524Z,10.37
2018-11-27T20:50:53.256Z,11.33
2018-11-27T20:53:23.440Z,10.43
2018-11-27T20:55:52.995Z,16.70
2018-11-27T20:58:22.342Z,8.00
2018-11-27T21:00:53.288Z,14.10
2018-11-27T21:03:23.270Z,16.00
2018-11-27T21:05:52.372Z,17.20
2018-11-27T21:08:22.985Z,10.63
2018-11-27T21:10:55.010Z,15.30
2018-11-27T21:13:24.437Z,17.17
2018-11-27T21:15:53.607Z,13.97
2018-11-27T21:18:26.927Z,14.70
2018-11-27T21:20:56.035Z,17.73
2018-11-27T21:23:25.425Z,15.70
2018-11-27T21:26:05.698Z,14.27
2018-11-27T21:28:35.519Z,18.33
2018-11-27T21:31:07.200Z,16.33
2018-11-27T21:33:36.475Z,18.20
2018-11-27T21:36:05.710Z,7.90
2018-11-27T21:38:34.788Z,16.77
2018-11-27T21:41:04.002Z,11.83
2018-11-27T21:43:37.004Z,6.20
2018-11-27T21:46:06.383Z,12.50
2018-11-27T21:48:35.552Z,16.97
2018-11-27T21:51:06.960Z,14.43
2018-11-27T21:53:37.461Z,13.70
2018-11-27T21:56:07.181Z,11.10
2018-11-27T21:58:36.677Z,18.07
2018-11-27T22:01:06.121Z,11.17
2018-11-27T22:03:35.523Z,18.27
2018-11-27T22:06:04.767Z,16.20
2018-11-27T22:08:33.963Z,9.73
2018-11-27T22:11:03.165Z,17.37
2018-11-27T22:13:32.494Z,16.77
2018-11-27T22:16:01.754Z,14.37
2018-11-27T22:18:35.591Z,14.37
2018-11-27T22:21:05.075Z,8.97
2018-11-27T22:23:35.362Z,9.90
2018-11-27T22:26:04.473Z,17.30
2018-11-27T22:28:33.723Z,11.40
2018-11-27T22:31:03.291Z,17.43
2018-11-27T22:33:32.528Z,12.60
2018-11-27T22:36:03.012Z,13.93
2018-11-27T22:38:32.266Z,14.47
2018-11-27T22:41:01.415Z,11.70
2018-11-27T22:43:30.807Z,14.77
2018-11-27T22:46:00.224Z,15.17
2018-11-27T22:48:29.393Z,16.60
2018-11-27T22:50:58.650Z,20.43
2018-11-27T22:53:28.120Z,19.57
2018-11-27T22:56:03.293Z,21.27
2018-11-27T22:58:32.360Z,14.57
2018-11-27T23:01:01.564Z,15.43
2018-11-27T23:03:30.526Z,11.40
2018-11-27T23:05:59.650Z,21.80
2018-11-27T23:08:30.208Z,12.13
2018-11-27T23:10:59.760Z,20.00
2018-11-27T23:13:29.063Z,24.13
2018-11-27T23:15:58.286Z,15.20
2018-11-27T23:18:27.545Z,13.83
2018-11-27T23:20:57.010Z,17.93
2018-11-27T23:23:26.265Z,10.30
2018-11-27T23:25:55.530Z,10.33
2018-11-27T23:28:24.472Z,12.47
2018-11-27T23:30:53.879Z,16.83
2018-11-27T23:33:23.004Z,15.50
2018-11-27T23:35:52.281Z,14.13
2018-11-27T23:38:21.464Z,20.90
2018-11-27T23:40:50.706Z,21.27
2018-11-27T23:43:20.225Z,15.73
2018-11-27T23:45:49.568Z,13.57
2018-11-27T23:48:18.808Z,11.80
2018-11-27T23:50:48.041Z,15.20
2018-11-27T23:53:17.504Z,14.50
2018-11-27T23:55:46.943Z,13.57
2018-11-27T23:58:16.401Z,17.63
